createdAt,value
2022-09-29T00:00:36.675Z,3.80
2022-09-29T00:03:05.111Z,3.67
2022-09-29T00:05:33.064Z,3.93
2022-09-29T00:08:01.047Z,4.30
2022-09-29T00:10:28.822Z,4.50
2022-09-29T00:12:56.595Z,4.40
2022-09-29T00:15:24.342Z,4.40
2022-09-29T00:18:15.214Z,4.37
2022-09-29T00:20:41.420Z,4.60
2022-09-29T00:23:09.155Z,5.07
2022-09-29T00:25:36.886Z,4.40
2022-09-29T00:28:04.639Z,3.97
2022-09-29T00:30:32.413Z,3.60
2022-09-29T00:33:01.521Z,3.93
2022-09-29T00:35:29.300Z,3.20
2022-09-29T00:37:57.037Z,3.43
2022-09-29T00:40:24.835Z,3.80
2022-09-29T00:42:52.572Z,3.60
2022-09-29T00:45:23.057Z,3.47
2022-09-29T00:48:03.648Z,3.50
2022-09-29T00:50:41.192Z,3.20
2022-09-29T00:53:12.517Z,3.67
2022-09-29T00:55:48.318Z,3.90
2022-09-29T00:58:23.926Z,3.37
2022-09-29T01:00:51.749Z,3.57
2022-09-29T01:03:22.957Z,4.03
2022-09-29T01:05:58.011Z,3.40
2022-09-29T01:08:31.811Z,3.40
2022-09-29T01:11:01.882Z,3.30
2022-09-29T01:13:30.301Z,3.63
2022-09-29T01:15:58.063Z,3.40
2022-09-29T01:18:26.444Z,3.70
2022-09-29T01:21:10.590Z,3.83
2022-09-29T01:24:13.686Z,3.97
2022-09-29T01:27:18.926Z,4.03
2022-09-29T01:30:16.937Z,3.93
2022-09-29T01:32:57.968Z,4.07
2022-09-29T01:35:31.636Z,4.00
2022-09-29T01:38:10.544Z,4.20
2022-09-29T01:40:47.515Z,4.70
2022-09-29T01:43:19.834Z,4.30
2022-09-29T01:45:52.775Z,4.07
2022-09-29T01:48:26.793Z,4.13
2022-09-29T01:51:00.162Z,3.90
2022-09-29T01:53:31.654Z,4.17
2022-09-29T01:56:05.034Z,4.37
2022-09-29T01:58:40.069Z,4.60
2022-09-29T02:01:12.780Z,4.53
2022-09-29T02:03:48.372Z,4.70
2022-09-29T02:06:19.341Z,4.53
2022-09-29T02:08:52.235Z,5.10
2022-09-29T02:11:21.506Z,4.43
2022-09-29T02:13:54.803Z,4.20
2022-09-29T02:16:26.982Z,4.30
2022-09-29T02:18:59.579Z,4.37
2022-09-29T02:21:28.976Z,5.33
2022-09-29T02:23:57.583Z,4.47
2022-09-29T02:26:26.915Z,5.20
2022-09-29T02:28:56.250Z,4.57
2022-09-29T02:31:24.826Z,4.97
2022-09-29T02:33:52.811Z,5.20
2022-09-29T02:36:28.919Z,5.17
2022-09-29T02:39:03.238Z,5.40
2022-09-29T02:41:41.524Z,4.87
2022-09-29T02:44:35.440Z,5.97
2022-09-29T02:47:32.874Z,5.60
2022-09-29T02:50:18.571Z,6.33
2022-09-29T02:52:56.394Z,6.10
2022-09-29T02:55:33.760Z,6.87
2022-09-29T02:58:06.744Z,7.10
2022-09-29T03:00:35.080Z,7.27
2022-09-29T03:03:02.867Z,7.70
2022-09-29T03:05:31.296Z,7.67
2022-09-29T03:08:00.421Z,8.00
2022-09-29T03:10:30.375Z,7.40
2022-09-29T03:12:58.315Z,8.17
2022-09-29T03:15:26.064Z,7.83
2022-09-29T03:17:57.615Z,7.80
2022-09-29T03:20:25.947Z,8.20
2022-09-29T03:22:57.341Z,8.20
2022-09-29T03:25:26.515Z,8.47
2022-09-29T03:27:54.287Z,8.90
2022-09-29T03:30:23.314Z,8.43
2022-09-29T03:32:51.289Z,9.20
2022-09-29T03:35:19.099Z,9.10
2022-09-29T03:37:47.587Z,9.07
2022-09-29T03:40:15.601Z,9.53
2022-09-29T03:42:47.003Z,9.63
2022-09-29T03:45:14.870Z,8.70
2022-09-29T03:47:42.600Z,9.03
2022-09-29T03:50:10.996Z,8.27
2022-09-29T03:52:38.786Z,8.63
2022-09-29T03:55:07.460Z,8.77
2022-09-29T03:57:35.207Z,8.90
2022-09-29T04:00:05.073Z,8.97
2022-09-29T04:02:34.477Z,9.40
2022-09-29T04:05:02.232Z,9.67
2022-09-29T04:07:31.401Z,9.27
2022-09-29T04:09:59.128Z,9.33
2022-09-29T04:12:26.856Z,10.33
2022-09-29T04:14:54.628Z,9.87
2022-09-29T04:17:23.842Z,10.23
2022-09-29T04:19:51.560Z,10.03
2022-09-29T04:22:19.410Z,9.80
2022-09-29T04:24:48.034Z,9.37
2022-09-29T04:27:16.196Z,9.67
2022-09-29T04:29:43.988Z,9.83
2022-09-29T04:32:12.881Z,9.40
2022-09-29T04:34:42.005Z,9.30
2022-09-29T04:37:11.738Z,8.80
2022-09-29T04:39:39.692Z,9.17
2022-09-29T04:42:08.040Z,8.63
2022-09-29T04:44:35.790Z,9.07
2022-09-29T04:47:03.525Z,8.73
2022-09-29T04:49:31.447Z,8.40
2022-09-29T04:52:00.529Z,7.97
2022-09-29T04:54:36.799Z,8.20
2022-09-29T04:57:05.826Z,8.80
2022-09-29T04:59:33.911Z,7.77
2022-09-29T05:02:01.678Z,8.40
2022-09-29T05:04:29.540Z,8.83
2022-09-29T05:06:57.313Z,8.43
2022-09-29T05:09:29.934Z,8.70
2022-09-29T05:12:00.448Z,8.90
2022-09-29T05:14:28.267Z,9.60
2022-09-29T05:16:56.223Z,9.97
2022-09-29T05:19:24.160Z,9.60
2022-09-29T05:21:52.083Z,9.33
2022-09-29T05:24:19.832Z,8.77
2022-09-29T05:26:48.923Z,9.43
2022-09-29T05:29:16.966Z,11.37
2022-09-29T05:31:45.221Z,14.13
2022-09-29T05:34:13.090Z,14.97
2022-09-29T05:36:40.856Z,13.67
2022-09-29T05:39:08.740Z,14.87
2022-09-29T05:41:36.492Z,16.63
2022-09-29T05:44:05.774Z,16.40
2022-09-29T05:46:33.542Z,14.67
2022-09-29T05:49:01.286Z,14.67
2022-09-29T05:51:29.050Z,16.07
2022-09-29T05:53:56.852Z,15.03
2022-09-29T05:56:26.338Z,16.80
2022-09-29T05:58:55.163Z,15.53
2022-09-29T06:01:26.397Z,14.93
2022-09-29T06:03:55.058Z,15.37
2022-09-29T06:06:25.348Z,17.27
2022-09-29T06:08:53.880Z,14.97
2022-09-29T06:11:23.406Z,15.30
2022-09-29T06:13:53.459Z,16.20
2022-09-29T06:16:23.193Z,15.37
2022-09-29T06:18:52.980Z,15.33
2022-09-29T06:21:23.708Z,15.73
2022-09-29T06:23:52.251Z,17.30
2022-09-29T06:26:24.294Z,16.77
2022-09-29T06:28:52.457Z,17.23
2022-09-29T06:31:22.401Z,17.60
2022-09-29T06:33:51.871Z,15.53
2022-09-29T06:36:40.030Z,15.67
2022-09-29T06:39:09.792Z,16.60
2022-09-29T06:41:37.961Z,16.60
2022-09-29T06:44:05.722Z,15.97
2022-09-29T06:46:33.860Z,16.43
2022-09-29T06:49:03.042Z,16.70
2022-09-29T06:51:41.875Z,15.77
2022-09-29T06:54:13.685Z,15.93
2022-09-29T06:56:41.629Z,15.27
2022-09-29T06:59:09.839Z,15.83
2022-09-29T07:01:37.657Z,15.87
2022-09-29T07:04:07.404Z,16.80
2022-09-29T07:06:35.432Z,16.20
2022-09-29T07:09:03.390Z,16.53
2022-09-29T07:11:31.127Z,17.00
2022-09-29T07:13:58.860Z,17.00
2022-09-29T07:16:26.674Z,16.70
2022-09-29T07:18:54.462Z,16.77
2022-09-29T07:21:23.609Z,16.87
2022-09-29T07:23:51.449Z,16.93
2022-09-29T07:26:19.671Z,16.63
2022-09-29T07:28:47.965Z,17.40
2022-09-29T07:31:17.616Z,17.13
2022-09-29T07:33:46.057Z,17.97
2022-09-29T07:36:15.199Z,18.33
2022-09-29T07:38:47.317Z,18.47
2022-09-29T07:41:15.400Z,18.30
2022-09-29T07:43:43.387Z,18.73
2022-09-29T07:46:11.657Z,18.63
2022-09-29T07:48:40.336Z,19.80
2022-09-29T07:51:09.855Z,19.97
2022-09-29T07:53:38.316Z,20.63
2022-09-29T07:56:09.426Z,21.03
2022-09-29T07:58:38.147Z,20.33
2022-09-29T08:01:10.349Z,21.77
2022-09-29T08:03:38.951Z,21.60
2022-09-29T08:06:07.420Z,20.73
2022-09-29T08:08:36.238Z,21.37
2022-09-29T08:11:05.284Z,21.70
2022-09-29T08:13:36.261Z,20.40
2022-09-29T08:16:05.904Z,21.00
2022-09-29T08:18:35.342Z,19.27
2022-09-29T08:21:04.208Z,21.73
2022-09-29T08:23:32.854Z,18.90
2022-09-29T08:26:02.628Z,19.60
2022-09-29T08:28:32.432Z,20.17
2022-09-29T08:31:04.887Z,19.37
2022-09-29T08:33:33.628Z,19.37
2022-09-29T08:36:03.565Z,21.30
2022-09-29T08:38:33.110Z,20.40
2022-09-29T08:41:05.583Z,19.13
2022-09-29T08:43:38.404Z,19.10
2022-09-29T08:46:12.283Z,19.47
2022-09-29T08:48:55.963Z,19.37
2022-09-29T08:51:40.174Z,18.23
2022-09-29T08:54:24.838Z,16.70
2022-09-29T08:56:58.067Z,16.70
2022-09-29T08:59:28.528Z,14.90
2022-09-29T09:02:14.371Z,14.87
2022-09-29T09:04:57.632Z,14.17
2022-09-29T09:07:35.315Z,11.03
2022-09-29T09:10:17.887Z,11.30
2022-09-29T09:13:04.071Z,11.90
2022-09-29T09:15:44.975Z,10.60
2022-09-29T09:18:39.462Z,11.13
2022-09-29T09:21:09.774Z,10.77
2022-09-29T09:23:50.744Z,11.00
2022-09-29T09:26:19.832Z,10.63
2022-09-29T09:28:52.019Z,8.53
2022-09-29T09:31:25.233Z,8.00
2022-09-29T09:34:05.829Z,9.00
2022-09-29T09:36:38.218Z,9.37
2022-09-29T09:39:14.244Z,6.10
2022-09-29T09:41:44.862Z,6.30
2022-09-29T09:44:16.338Z,8.03
2022-09-29T09:46:49.929Z,8.30
2022-09-29T09:49:24.548Z,8.37
2022-09-29T09:51:59.159Z,8.87
2022-09-29T09:54:31.594Z,8.43
2022-09-29T09:57:30.398Z,7.57
2022-09-29T10:00:09.798Z,6.73
2022-09-29T10:02:44.768Z,7.50
2022-09-29T10:05:16.201Z,7.50
2022-09-29T10:07:45.097Z,7.30
2022-09-29T10:10:19.952Z,6.40
2022-09-29T10:12:47.789Z,5.37
2022-09-29T10:15:23.994Z,5.10
2022-09-29T10:18:00.892Z,4.10
2022-09-29T10:20:37.195Z,3.47
2022-09-29T10:23:30.606Z,5.20
2022-09-29T10:26:05.528Z,3.67
2022-09-29T10:28:41.646Z,2.57
2022-09-29T10:31:23.792Z,2.27
2022-09-29T10:33:54.432Z,2.40
2022-09-29T10:36:24.765Z,1.97
2022-09-29T10:38:54.422Z,1.80
2022-09-29T10:41:22.322Z,2.20
2022-09-29T10:43:52.827Z,2.30
2022-09-29T10:46:39.947Z,2.27
2022-09-29T10:49:15.134Z,2.00
2022-09-29T10:51:55.048Z,2.03
2022-09-29T10:54:26.645Z,1.53
2022-09-29T10:56:56.384Z,1.37
2022-09-29T10:59:26.717Z,1.40
2022-09-29T11:01:57.695Z,1.20
2022-09-29T11:04:29.459Z,1.00
2022-09-29T11:07:06.728Z,0.60
2022-09-29T11:09:40.654Z,1.37
2022-09-29T11:12:33.162Z,1.73
2022-09-29T11:15:01.924Z,1.70
2022-09-29T11:17:32.189Z,2.10
2022-09-29T11:20:02.182Z,1.97
2022-09-29T11:23:06.169Z,2.20
2022-09-29T11:25:53.234Z,1.50
2022-09-29T11:28:36.280Z,1.17
2022-09-29T11:31:17.927Z,1.40
2022-09-29T11:33:58.029Z,1.50
2022-09-29T11:36:36.381Z,1.67
2022-09-29T11:39:18.608Z,1.33
2022-09-29T11:42:03.617Z,1.47
2022-09-29T11:45:03.389Z,1.90
2022-09-29T11:47:50.018Z,2.90
2022-09-29T11:50:27.162Z,1.00
2022-09-29T11:53:27.414Z,1.10
2022-09-29T11:56:09.350Z,1.30
2022-09-29T11:59:02.046Z,6.17
2022-09-29T12:01:47.714Z,1.70
2022-09-29T12:04:31.775Z,1.47
2022-09-29T12:07:13.562Z,2.00
2022-09-29T12:10:03.879Z,1.57
2022-09-29T12:12:39.494Z,1.33
2022-09-29T12:15:29.082Z,1.50
2022-09-29T12:18:01.958Z,1.70
2022-09-29T12:20:33.918Z,1.37
2022-09-29T12:23:05.762Z,1.70
2022-09-29T12:25:37.751Z,1.47
2022-09-29T12:28:12.644Z,1.60
2022-09-29T12:30:47.534Z,1.60
2022-09-29T12:33:21.503Z,1.30
2022-09-29T12:35:56.888Z,1.30
2022-09-29T12:38:32.522Z,1.10
2022-09-29T12:41:13.866Z,0.90
2022-09-29T12:43:49.992Z,0.80
2022-09-29T12:46:26.117Z,0.80
2022-09-29T12:48:59.971Z,0.80
2022-09-29T12:51:34.360Z,0.93
2022-09-29T12:54:14.375Z,0.90
2022-09-29T12:56:46.381Z,0.90
2022-09-29T12:59:23.541Z,1.10
2022-09-29T13:01:57.080Z,1.43
2022-09-29T13:04:58.462Z,1.00
2022-09-29T13:07:56.296Z,1.00
2022-09-29T13:10:52.532Z,0.87
2022-09-29T13:13:43.314Z,1.20
2022-09-29T13:16:22.557Z,1.20
2022-09-29T13:19:45.674Z,1.20
2022-09-29T13:22:34.632Z,1.60
2022-09-29T13:25:14.242Z,1.20
2022-09-29T13:27:45.255Z,1.17
2022-09-29T13:30:16.967Z,1.50
2022-09-29T13:32:46.741Z,1.10
2022-09-29T13:35:19.321Z,1.00
2022-09-29T13:37:53.541Z,1.30
2022-09-29T13:40:25.317Z,0.93
2022-09-29T13:42:55.846Z,0.70
2022-09-29T13:45:46.810Z,0.90
2022-09-29T13:48:39.394Z,0.70
2022-09-29T13:51:46.403Z,1.00
2022-09-29T13:54:35.421Z,1.00
2022-09-29T13:57:28.444Z,1.03
2022-09-29T14:00:26.578Z,1.03
2022-09-29T14:03:24.224Z,0.90
2022-09-29T14:06:28.843Z,1.23
2022-09-29T14:09:03.790Z,0.73
2022-09-29T14:11:37.320Z,0.97
2022-09-29T14:14:09.342Z,0.87
2022-09-29T14:16:56.553Z,1.00
2022-09-29T14:19:37.260Z,0.93
2022-09-29T14:22:07.105Z,0.70
2022-09-29T14:24:47.254Z,0.70
2022-09-29T14:27:29.534Z,1.00
2022-09-29T14:30:13.004Z,1.00
2022-09-29T14:32:45.675Z,0.90
2022-09-29T14:35:20.439Z,1.40
2022-09-29T14:37:55.735Z,0.90
2022-09-29T14:40:30.964Z,0.70
2022-09-29T14:43:07.061Z,0.90
2022-09-29T14:46:00.621Z,1.00
2022-09-29T14:48:56.523Z,0.80
2022-09-29T14:51:49.715Z,0.90
2022-09-29T14:54:27.597Z,0.70
2022-09-29T14:57:07.752Z,0.60
2022-09-29T14:59:48.875Z,0.53
2022-09-29T15:02:23.087Z,0.60
2022-09-29T15:04:51.648Z,0.70
2022-09-29T15:07:21.876Z,0.60
2022-09-29T15:09:52.552Z,0.80
2022-09-29T15:12:27.393Z,0.63
2022-09-29T15:14:58.009Z,0.60
2022-09-29T15:17:43.147Z,0.80
2022-09-29T15:20:18.985Z,0.50
2022-09-29T15:23:12.066Z,0.50
2022-09-29T15:25:41.524Z,0.50
2022-09-29T15:28:17.148Z,0.60
2022-09-29T15:30:46.866Z,0.80
2022-09-29T15:33:22.078Z,0.50
2022-09-29T15:35:53.362Z,0.67
2022-09-29T15:38:39.947Z,0.60
2022-09-29T15:41:17.752Z,0.53
2022-09-29T15:43:55.971Z,0.57
2022-09-29T15:46:26.641Z,0.50
2022-09-29T15:49:19.648Z,0.80
2022-09-29T15:51:58.366Z,0.47
2022-09-29T15:54:27.999Z,0.50
2022-09-29T15:57:13.347Z,0.60
2022-09-29T15:59:51.430Z,0.50
2022-09-29T16:02:25.062Z,0.40
2022-09-29T16:04:57.109Z,0.50
2022-09-29T16:07:29.108Z,0.40
2022-09-29T16:10:03.796Z,0.40
2022-09-29T16:12:37.047Z,0.40
2022-09-29T16:15:07.832Z,0.30
2022-09-29T16:17:35.743Z,0.40
2022-09-29T16:20:04.572Z,0.30
2022-09-29T16:22:33.052Z,0.27
2022-09-29T16:25:11.228Z,0.50
2022-09-29T16:27:55.965Z,0.40
2022-09-29T16:30:30.055Z,0.47
2022-09-29T16:33:15.046Z,0.50
2022-09-29T16:36:03.502Z,0.50
2022-09-29T16:38:38.094Z,0.40
2022-09-29T16:41:11.904Z,0.60
2022-09-29T16:43:42.118Z,0.50
2022-09-29T16:46:15.862Z,0.60
2022-09-29T16:48:46.161Z,0.50
2022-09-29T16:54:07.878Z,0.50
2022-09-29T16:56:36.767Z,0.50
2022-09-29T16:59:11.165Z,0.70
2022-09-29T17:01:41.540Z,0.63
2022-09-29T17:04:09.839Z,0.80
2022-09-29T17:06:38.122Z,0.60
2022-09-29T17:09:07.242Z,0.83
2022-09-29T17:11:35.532Z,0.87
2022-09-29T17:14:03.469Z,0.70
2022-09-29T17:16:31.506Z,0.60
2022-09-29T17:19:01.111Z,0.80
2022-09-29T17:21:30.292Z,0.63
2022-09-29T17:24:00.296Z,0.90
2022-09-29T17:26:55.210Z,0.80
2022-09-29T17:29:23.112Z,0.80
2022-09-29T17:31:51.009Z,0.90
2022-09-29T17:34:28.872Z,1.10
2022-09-29T17:36:58.267Z,1.00
2022-09-29T17:39:26.056Z,0.93
2022-09-29T17:41:53.828Z,1.13
2022-09-29T17:44:21.846Z,1.10
2022-09-29T17:46:54.476Z,1.10
2022-09-29T17:49:27.016Z,1.10
2022-09-29T17:51:54.837Z,1.10
2022-09-29T17:54:27.680Z,1.10
2022-09-29T17:57:00.234Z,1.30
2022-09-29T17:59:31.332Z,1.50
2022-09-29T18:01:59.567Z,1.20
2022-09-29T18:04:28.850Z,1.27
2022-09-29T18:06:56.814Z,1.30
2022-09-29T18:09:24.727Z,1.50
2022-09-29T18:11:52.700Z,1.93
2022-09-29T18:14:20.660Z,1.90
2022-09-29T18:16:49.313Z,2.00
2022-09-29T18:19:18.783Z,2.33
2022-09-29T18:21:48.105Z,1.90
2022-09-29T18:24:15.982Z,2.60
2022-09-29T18:26:46.345Z,2.50
2022-09-29T18:29:19.008Z,2.40
2022-09-29T18:31:47.609Z,2.33
2022-09-29T18:34:18.631Z,2.17
2022-09-29T18:36:47.994Z,2.50
2022-09-29T18:39:16.073Z,3.50
2022-09-29T18:41:44.062Z,3.10
2022-09-29T18:44:16.766Z,2.63
2022-09-29T18:46:45.533Z,2.37
2022-09-29T18:49:14.952Z,1.90
2022-09-29T18:51:42.988Z,1.87
2022-09-29T18:54:13.342Z,2.00
2022-09-29T18:56:41.599Z,1.80
2022-09-29T18:59:12.404Z,1.90
2022-09-29T19:01:41.520Z,1.50
2022-09-29T19:04:10.538Z,1.63
2022-09-29T19:06:38.476Z,1.83
2022-09-29T19:09:06.517Z,1.80
2022-09-29T19:11:35.913Z,1.67
2022-09-29T19:14:03.853Z,2.00
2022-09-29T19:16:34.093Z,2.23
2022-09-29T19:19:04.352Z,1.87
2022-09-29T19:21:33.378Z,2.17
2022-09-29T19:24:01.593Z,2.00
2022-09-29T19:26:30.424Z,2.07
2022-09-29T19:28:59.756Z,2.13
2022-09-29T19:31:27.777Z,2.00
2022-09-29T19:33:57.428Z,1.83
2022-09-29T19:36:25.422Z,1.90
2022-09-29T19:38:53.539Z,2.00
2022-09-29T19:41:24.029Z,2.20
2022-09-29T19:46:20.704Z,2.23
2022-09-29T19:48:49.167Z,2.33
2022-09-29T19:51:35.550Z,2.40
2022-09-29T19:54:17.162Z,2.60
2022-09-29T19:56:48.440Z,2.33
2022-09-29T19:59:18.472Z,2.80
2022-09-29T20:01:50.160Z,6.60
2022-09-29T20:04:19.708Z,9.27
2022-09-29T20:06:47.834Z,9.23
2022-09-29T20:09:16.873Z,9.63
2022-09-29T20:11:47.048Z,10.47
2022-09-29T20:14:17.194Z,8.77
2022-09-29T20:16:48.052Z,7.30
2022-09-29T20:19:18.658Z,6.63
2022-09-29T20:21:48.116Z,5.00
2022-09-29T20:24:18.302Z,3.53
2022-09-29T20:26:48.260Z,3.00
2022-09-29T20:29:18.714Z,2.90
2022-09-29T20:31:48.326Z,2.63
2022-09-29T20:34:18.359Z,2.80
2022-09-29T20:36:49.699Z,2.80
2022-09-29T20:39:20.048Z,2.60
2022-09-29T20:41:48.137Z,2.73
2022-09-29T20:44:19.964Z,2.40
2022-09-29T20:46:49.826Z,3.10
2022-09-29T20:49:18.035Z,3.87
2022-09-29T20:51:46.169Z,4.87
2022-09-29T20:54:14.708Z,4.20
2022-09-29T20:56:42.634Z,4.60
2022-09-29T20:59:12.460Z,4.50
2022-09-29T21:01:40.528Z,4.80
2022-09-29T21:04:12.175Z,4.93
2022-09-29T21:06:42.291Z,4.90
2022-09-29T21:09:12.222Z,6.10
2022-09-29T21:11:41.109Z,5.67
2022-09-29T21:14:11.780Z,4.77
2022-09-29T21:16:41.988Z,4.47
2022-09-29T21:19:11.221Z,4.43
2022-09-29T21:21:40.899Z,4.60
2022-09-29T21:24:09.302Z,3.70
2022-09-29T21:26:38.993Z,3.87
2022-09-29T21:29:08.813Z,3.83
2022-09-29T21:31:37.047Z,4.30
2022-09-29T21:34:06.875Z,4.60
2022-09-29T21:36:38.048Z,5.13
2022-09-29T21:39:08.861Z,5.20
2022-09-29T21:41:38.832Z,5.07
2022-09-29T21:44:11.212Z,6.00
2022-09-29T21:46:39.900Z,5.33
2022-09-29T21:49:09.961Z,4.93
2022-09-29T21:51:40.831Z,5.10
2022-09-29T21:54:12.107Z,5.37
2022-09-29T21:56:41.620Z,5.03
2022-09-29T21:59:10.403Z,5.60
2022-09-29T22:01:39.956Z,5.70
2022-09-29T22:04:08.905Z,5.83
2022-09-29T22:06:39.419Z,5.83
2022-09-29T22:09:08.760Z,5.37
2022-09-29T22:11:38.987Z,5.37
2022-09-29T22:14:08.074Z,5.70
2022-09-29T22:16:36.752Z,5.23
2022-09-29T22:21:55.410Z,5.70
2022-09-29T22:24:26.484Z,5.63
2022-09-29T22:26:54.575Z,5.40
2022-09-29T22:29:22.447Z,5.83
2022-09-29T22:31:50.475Z,6.00
2022-09-29T22:34:18.278Z,5.57
2022-09-29T22:36:46.098Z,5.60
2022-09-29T22:39:15.317Z,6.33
2022-09-29T22:41:43.728Z,5.97
2022-09-29T22:44:12.262Z,5.90
2022-09-29T22:46:40.150Z,5.53
2022-09-29T22:49:08.120Z,5.77
2022-09-29T22:51:35.845Z,5.10
2022-09-29T22:54:03.592Z,5.93
2022-09-29T22:56:32.791Z,5.20
2022-09-29T22:59:02.032Z,5.40
2022-09-29T23:01:30.188Z,5.47
2022-09-29T23:03:58.221Z,5.40
2022-09-29T23:06:26.479Z,4.77
2022-09-29T23:08:55.509Z,5.50
2022-09-29T23:11:23.855Z,5.50
2022-09-29T23:13:53.767Z,4.90
2022-09-29T23:16:21.818Z,4.90
2022-09-29T23:18:53.824Z,4.37
2022-09-29T23:21:22.542Z,4.30
2022-09-29T23:23:54.353Z,4.97
2022-09-29T23:26:22.208Z,4.10
2022-09-29T23:28:50.071Z,4.27
2022-09-29T23:31:19.482Z,4.50
2022-09-29T23:33:52.910Z,4.00
2022-09-29T23:36:20.692Z,4.10
2022-09-29T23:39:06.184Z,3.93
2022-09-29T23:41:34.335Z,4.57
2022-09-29T23:44:05.057Z,4.10
2022-09-29T23:46:37.397Z,4.50
2022-09-29T23:49:09.414Z,4.03
2022-09-29T23:51:38.245Z,4.20
2022-09-29T23:54:07.338Z,4.00
2022-09-29T23:56:35.430Z,4.23
2022-09-29T23:59:03.643Z,3.70
